createdAt,value
2022-11-08T00:02:14.107Z,10.15
2022-11-08T00:05:58.455Z,10.18
2022-11-08T00:09:43.923Z,10.21
2022-11-08T00:13:28.251Z,10.25
2022-11-08T00:16:55.114Z,10.32
2022-11-08T00:20:22.484Z,10.34
2022-11-08T00:23:49.792Z,10.34
2022-11-08T00:27:18.922Z,10.32
2022-11-08T00:30:45.518Z,10.28
2022-11-08T00:34:14.986Z,10.27
2022-11-08T00:37:42.030Z,10.23
2022-11-08T00:41:08.995Z,10.20
2022-11-08T00:44:36.015Z,10.16
2022-11-08T00:48:02.998Z,10.14
2022-11-08T00:51:29.860Z,10.15
2022-11-08T00:54:57.024Z,10.16
2022-11-08T00:58:27.841Z,10.16
2022-11-08T01:01:55.306Z,10.18
2022-11-08T01:05:22.081Z,10.20
2022-11-08T01:08:50.159Z,10.23
2022-11-08T01:12:17.419Z,10.27
2022-11-08T01:15:46.632Z,10.32
2022-11-08T01:19:16.006Z,10.34
2022-11-08T01:22:43.164Z,10.37
2022-11-08T01:26:13.045Z,10.38
2022-11-08T01:29:39.736Z,10.37
2022-11-08T01:33:06.889Z,10.36
2022-11-08T01:36:34.165Z,10.36
2022-11-08T01:40:01.577Z,10.33
2022-11-08T01:43:41.606Z,10.29
2022-11-08T01:47:08.227Z,10.23
2022-11-08T01:50:35.478Z,10.19
2022-11-08T01:54:05.959Z,10.17
2022-11-08T01:57:37.367Z,10.16
2022-11-08T02:01:05.747Z,10.18
2022-11-08T02:04:33.468Z,10.18
2022-11-08T02:08:04.419Z,10.20
2022-11-08T02:11:32.174Z,10.23
2022-11-08T02:14:58.936Z,10.24
2022-11-08T02:18:30.252Z,10.25
2022-11-08T02:22:01.964Z,10.27
2022-11-08T02:25:30.101Z,10.30
2022-11-08T02:28:56.980Z,10.32
2022-11-08T02:32:24.739Z,10.35
2022-11-08T02:35:55.654Z,10.36
2022-11-08T02:39:23.171Z,10.37
2022-11-08T02:42:50.270Z,10.37
2022-11-08T02:46:17.229Z,10.33
2022-11-08T02:49:44.492Z,10.29
2022-11-08T02:53:12.315Z,10.22
2022-11-08T02:56:39.138Z,10.13
2022-11-08T03:00:06.197Z,10.08
2022-11-08T03:03:34.348Z,10.03
2022-11-08T03:07:00.930Z,10.02
2022-11-08T03:10:29.975Z,10.03
2022-11-08T03:13:57.256Z,10.03
2022-11-08T03:17:25.079Z,10.05
2022-11-08T03:20:51.861Z,10.06
2022-11-08T03:24:18.677Z,10.09
2022-11-08T03:27:46.408Z,10.14
2022-11-08T03:31:14.016Z,10.16
2022-11-08T03:34:41.381Z,10.18
2022-11-08T03:38:08.943Z,10.20
2022-11-08T03:41:35.954Z,10.23
2022-11-08T03:45:02.741Z,10.25
2022-11-08T03:48:30.239Z,10.26
2022-11-08T03:51:58.123Z,10.27
2022-11-08T03:55:27.184Z,10.29
2022-11-08T03:58:57.174Z,10.25
2022-11-08T04:02:24.777Z,10.21
2022-11-08T04:05:53.202Z,10.17
2022-11-08T04:09:21.649Z,10.16
2022-11-08T04:13:12.074Z,10.12
2022-11-08T04:16:38.950Z,10.09
2022-11-08T04:20:24.328Z,10.08
2022-11-08T04:23:52.680Z,10.07
2022-11-08T04:27:19.672Z,10.08
2022-11-08T04:30:52.761Z,10.09
2022-11-08T04:34:19.299Z,10.12
2022-11-08T04:37:46.156Z,10.17
2022-11-08T04:41:15.458Z,10.21
2022-11-08T04:44:42.160Z,10.23
2022-11-08T04:48:09.529Z,10.25
2022-11-08T04:51:36.775Z,10.25
2022-11-08T04:55:03.538Z,10.25
2022-11-08T04:58:30.686Z,10.24
2022-11-08T05:01:57.956Z,10.24
2022-11-08T05:05:25.605Z,10.25
2022-11-08T05:08:53.092Z,10.25
2022-11-08T05:12:19.777Z,10.22
2022-11-08T05:15:46.440Z,10.16
2022-11-08T05:19:13.524Z,10.09
2022-11-08T05:22:58.497Z,10.06
2022-11-08T05:26:25.809Z,10.03
2022-11-08T05:29:52.842Z,10.03
2022-11-08T05:33:19.654Z,10.02
2022-11-08T05:36:46.807Z,10.02
2022-11-08T05:40:15.064Z,10.01
2022-11-08T05:43:42.136Z,10.01
2022-11-08T05:47:09.257Z,10.02
2022-11-08T05:50:37.660Z,10.03
2022-11-08T05:54:13.349Z,10.03
2022-11-08T05:57:45.646Z,10.05
2022-11-08T06:01:14.590Z,10.06
2022-11-08T06:04:41.413Z,10.05
2022-11-08T06:08:08.371Z,10.03
2022-11-08T06:11:35.372Z,10.01
2022-11-08T06:15:04.528Z,10.00
2022-11-08T06:18:31.215Z,9.98
2022-11-08T06:21:58.399Z,9.97
2022-11-08T06:25:25.184Z,9.96
2022-11-08T06:28:51.968Z,9.92
2022-11-08T06:32:18.638Z,9.90
2022-11-08T06:35:45.321Z,9.88
2022-11-08T06:39:12.755Z,9.90
2022-11-08T06:42:39.361Z,9.91
2022-11-08T06:46:06.493Z,9.90
2022-11-08T06:49:33.441Z,9.93
2022-11-08T06:53:01.347Z,9.96
2022-11-08T06:56:28.748Z,9.98
2022-11-08T06:59:56.040Z,10.02
2022-11-08T07:03:22.976Z,10.05
2022-11-08T07:06:50.205Z,10.09
2022-11-08T07:10:22.009Z,10.14
2022-11-08T07:13:49.378Z,10.20
2022-11-08T07:17:18.621Z,10.26
2022-11-08T07:20:45.627Z,10.33
2022-11-08T07:24:12.313Z,10.36
2022-11-08T07:27:39.017Z,10.42
2022-11-08T07:31:08.253Z,10.45
2022-11-08T07:34:36.721Z,10.46
2022-11-08T07:38:05.630Z,10.43
2022-11-08T07:41:32.661Z,10.41
2022-11-08T07:45:00.160Z,10.43
2022-11-08T07:48:28.211Z,10.44
2022-11-08T07:51:56.029Z,10.42
2022-11-08T07:55:22.959Z,10.45
2022-11-08T07:58:50.525Z,10.51
2022-11-08T08:02:17.475Z,10.58
2022-11-08T08:05:46.754Z,10.66
2022-11-08T08:09:14.012Z,10.75
2022-11-08T08:12:40.815Z,10.83
2022-11-08T08:16:08.399Z,10.88
2022-11-08T08:19:36.103Z,10.93
2022-11-08T08:23:03.281Z,10.98
2022-11-08T08:26:30.848Z,11.02
2022-11-08T08:29:57.689Z,11.03
2022-11-08T08:33:29.086Z,11.03
2022-11-08T08:36:58.166Z,11.03
2022-11-08T08:40:25.036Z,11.07
2022-11-08T08:43:51.379Z,11.11
2022-11-08T08:47:19.667Z,11.17
2022-11-08T08:50:46.169Z,11.23
2022-11-08T08:54:15.029Z,11.27
2022-11-08T08:57:44.894Z,11.32
2022-11-08T09:05:00.400Z,11.51
2022-11-08T09:08:42.986Z,11.58
2022-11-08T09:12:13.549Z,11.73
2022-11-08T09:15:41.505Z,11.86
2022-11-08T09:19:08.188Z,11.94
2022-11-08T09:22:37.225Z,11.96
2022-11-08T09:26:04.950Z,11.98
2022-11-08T09:29:31.262Z,12.07
2022-11-08T09:33:01.296Z,12.13
2022-11-08T09:36:28.733Z,12.21
2022-11-08T09:39:57.073Z,12.29
2022-11-08T09:43:48.753Z,12.41
2022-11-08T09:47:21.148Z,12.50
2022-11-08T09:50:49.392Z,12.59
2022-11-08T09:54:22.724Z,12.64
2022-11-08T09:58:00.656Z,12.67
2022-11-08T10:01:27.756Z,12.74
2022-11-08T10:04:58.574Z,12.77
2022-11-08T10:08:32.037Z,12.85
2022-11-08T10:12:11.176Z,12.90
2022-11-08T10:15:48.376Z,13.00
2022-11-08T10:19:54.753Z,13.09
2022-11-08T10:23:34.033Z,13.20
2022-11-08T10:27:14.361Z,13.32
2022-11-08T10:30:46.795Z,13.39
2022-11-08T10:34:20.027Z,13.48
2022-11-08T10:37:53.637Z,13.60
2022-11-08T10:41:29.841Z,13.70
2022-11-08T10:45:05.277Z,13.76
2022-11-08T10:48:40.660Z,13.80
2022-11-08T10:52:24.571Z,13.82
2022-11-08T10:55:53.713Z,13.89
2022-11-08T10:59:32.503Z,13.90
2022-11-08T11:03:01.603Z,13.98
2022-11-08T11:06:31.411Z,14.06
2022-11-08T11:09:58.474Z,14.19
2022-11-08T11:17:02.738Z,14.43
2022-11-08T11:20:30.029Z,14.56
2022-11-08T11:24:00.325Z,14.62
2022-11-08T11:27:31.399Z,14.69
2022-11-08T11:31:03.015Z,14.74
2022-11-08T11:34:54.046Z,14.82
2022-11-08T11:38:31.770Z,14.95
2022-11-08T11:42:18.086Z,15.05
2022-11-08T11:45:53.057Z,15.17
2022-11-08T11:49:23.325Z,15.26
2022-11-08T11:52:50.579Z,15.37
2022-11-08T11:56:42.109Z,15.48
2022-11-08T12:00:14.657Z,15.67
2022-11-08T12:03:57.921Z,15.79
2022-11-08T12:07:28.152Z,15.87
2022-11-08T12:11:13.201Z,15.99
2022-11-08T12:14:56.406Z,16.03
2022-11-08T12:18:44.006Z,16.05
2022-11-08T12:22:34.814Z,16.04
2022-11-08T12:26:12.728Z,16.04
2022-11-08T12:29:50.093Z,16.04
2022-11-08T12:33:36.020Z,16.05
2022-11-08T12:37:14.911Z,16.06
2022-11-08T12:40:56.881Z,16.14
2022-11-08T12:44:56.682Z,16.18
2022-11-08T12:48:35.387Z,16.20
2022-11-08T12:52:20.761Z,16.18
2022-11-08T12:55:52.528Z,16.13
2022-11-08T12:59:24.341Z,16.05
2022-11-08T13:03:03.596Z,15.94
2022-11-08T13:06:36.353Z,15.84
2022-11-08T13:10:12.260Z,15.76
2022-11-08T13:13:50.210Z,15.64
2022-11-08T13:17:25.080Z,15.54
2022-11-08T13:20:52.828Z,15.43
2022-11-08T13:24:45.581Z,15.35
2022-11-08T13:28:46.672Z,15.35
2022-11-08T13:32:22.002Z,15.39
2022-11-08T13:35:59.916Z,15.41
2022-11-08T13:39:48.854Z,15.43
2022-11-08T13:43:29.698Z,15.44
2022-11-08T13:46:56.911Z,15.45
2022-11-08T13:50:53.011Z,15.43
2022-11-08T13:54:49.045Z,15.34
2022-11-08T13:58:34.927Z,15.24
2022-11-08T14:02:04.648Z,15.16
2022-11-08T14:05:33.470Z,15.06
2022-11-08T14:09:09.290Z,14.99
2022-11-08T14:12:44.139Z,14.93
2022-11-08T14:16:19.692Z,14.87
2022-11-08T14:19:48.777Z,14.78
2022-11-08T14:23:24.287Z,14.74
2022-11-08T14:26:51.446Z,14.67
2022-11-08T14:30:24.577Z,14.60
2022-11-08T14:33:50.425Z,14.55
2022-11-08T14:37:25.858Z,14.48
2022-11-08T14:41:00.171Z,14.43
2022-11-08T14:44:28.666Z,14.37
2022-11-08T14:48:01.423Z,14.30
2022-11-08T14:51:27.561Z,14.24
2022-11-08T14:55:04.468Z,14.15
2022-11-08T14:58:32.404Z,14.09
2022-11-08T15:02:00.636Z,14.02
2022-11-08T15:05:37.739Z,13.93
2022-11-08T15:09:07.371Z,13.83
2022-11-08T15:12:37.781Z,13.72
2022-11-08T15:16:09.694Z,13.61
2022-11-08T15:19:42.741Z,13.50
2022-11-08T15:23:27.313Z,13.43
2022-11-08T15:27:08.939Z,13.34
2022-11-08T15:30:44.097Z,13.27
2022-11-08T15:34:23.601Z,13.22
2022-11-08T15:38:01.098Z,13.19
2022-11-08T15:41:34.927Z,13.16
2022-11-08T15:45:05.089Z,13.12
2022-11-08T15:48:33.607Z,13.07
2022-11-08T15:52:00.914Z,13.03
2022-11-08T15:55:31.737Z,12.95
2022-11-08T15:58:58.199Z,12.89
2022-11-08T16:02:28.307Z,12.81
2022-11-08T16:05:59.576Z,12.70
2022-11-08T16:09:26.450Z,12.61
2022-11-08T16:12:54.586Z,12.52
2022-11-08T16:16:24.715Z,12.44
2022-11-08T16:19:51.703Z,12.35
2022-11-08T16:23:20.657Z,12.28
2022-11-08T16:26:50.355Z,12.22
2022-11-08T16:30:22.766Z,12.16
2022-11-08T16:33:51.726Z,12.11
2022-11-08T16:37:19.611Z,12.09
2022-11-08T16:40:47.240Z,12.09
2022-11-08T16:44:18.662Z,12.10
2022-11-08T16:47:54.490Z,12.10
2022-11-08T16:51:23.067Z,12.08
2022-11-08T16:54:52.777Z,12.06
2022-11-08T16:58:21.343Z,12.03
2022-11-08T17:01:49.771Z,11.98
2022-11-08T17:05:21.501Z,11.92
2022-11-08T17:08:48.683Z,11.82
2022-11-08T17:12:30.220Z,11.76
2022-11-08T17:15:58.422Z,11.68
2022-11-08T17:19:25.265Z,11.60
2022-11-08T17:22:53.028Z,11.54
2022-11-08T17:26:21.175Z,11.49
2022-11-08T17:29:48.096Z,11.46
2022-11-08T17:33:16.203Z,11.45
2022-11-08T17:36:43.866Z,11.45
2022-11-08T17:40:15.431Z,11.46
2022-11-08T17:43:42.529Z,11.47
2022-11-08T17:47:12.212Z,11.48
2022-11-08T17:50:39.972Z,11.47
2022-11-08T17:54:08.016Z,11.44
2022-11-08T17:57:36.221Z,11.43
2022-11-08T18:01:05.395Z,11.39
2022-11-08T18:04:32.573Z,11.34
2022-11-08T18:07:59.417Z,11.28
2022-11-08T18:11:29.903Z,11.22
2022-11-08T18:14:57.984Z,11.14
2022-11-08T18:18:24.757Z,11.07
2022-11-08T18:21:52.011Z,11.02
2022-11-08T18:25:19.610Z,10.99
2022-11-08T18:28:49.009Z,10.97
2022-11-08T18:32:17.322Z,10.96
2022-11-08T18:35:44.981Z,10.96
2022-11-08T18:42:52.695Z,11.03
2022-11-08T18:46:22.918Z,11.05
2022-11-08T18:49:49.894Z,11.06
2022-11-08T18:53:17.988Z,11.08
2022-11-08T18:56:44.813Z,11.10
2022-11-08T19:00:15.018Z,11.10
2022-11-08T19:03:41.949Z,11.11
2022-11-08T19:07:09.803Z,11.09
2022-11-08T19:10:38.779Z,11.05
2022-11-08T19:14:05.840Z,10.99
2022-11-08T19:17:35.485Z,10.92
2022-11-08T19:21:05.387Z,10.85
2022-11-08T19:24:32.053Z,10.80
2022-11-08T19:27:59.537Z,10.76
2022-11-08T19:31:27.481Z,10.72
2022-11-08T19:34:54.792Z,10.72
2022-11-08T19:38:22.814Z,10.72
2022-11-08T19:41:49.851Z,10.74
2022-11-08T19:45:19.558Z,10.78
2022-11-08T19:48:51.325Z,10.81
2022-11-08T19:52:23.616Z,10.82
2022-11-08T19:56:03.147Z,10.84
2022-11-08T19:59:33.171Z,10.86
2022-11-08T20:03:02.776Z,10.87
2022-11-08T20:06:34.301Z,10.87
2022-11-08T20:10:09.328Z,10.84
2022-11-08T20:13:36.886Z,10.82
2022-11-08T20:17:04.158Z,10.78
2022-11-08T20:20:32.600Z,10.71
2022-11-08T20:24:02.317Z,10.65
2022-11-08T20:27:36.780Z,10.60
2022-11-08T20:31:11.997Z,10.56
2022-11-08T20:34:41.679Z,10.52
2022-11-08T20:38:09.224Z,10.51
2022-11-08T20:41:39.433Z,10.49
2022-11-08T20:45:14.730Z,10.49
2022-11-08T20:48:50.668Z,10.50
2022-11-08T20:52:25.150Z,10.49
2022-11-08T20:56:00.802Z,10.50
2022-11-08T20:59:28.243Z,10.53
2022-11-08T21:02:55.956Z,10.55
2022-11-08T21:06:35.557Z,10.57
2022-11-08T21:10:35.930Z,10.56
2022-11-08T21:13:57.400Z,10.55
2022-11-08T21:17:25.996Z,10.51
2022-11-08T21:21:02.990Z,10.45
2022-11-08T21:24:37.345Z,10.37
2022-11-08T21:28:09.486Z,10.30
2022-11-08T21:31:37.410Z,10.22
2022-11-08T21:35:05.098Z,10.18
2022-11-08T21:38:35.154Z,10.14
2022-11-08T21:42:05.817Z,10.13
2022-11-08T21:45:36.511Z,10.11
2022-11-08T21:49:10.793Z,10.12
2022-11-08T21:52:38.192Z,10.14
2022-11-08T21:56:09.307Z,10.17
2022-11-08T21:59:36.416Z,10.20
2022-11-08T22:03:03.205Z,10.23
2022-11-08T22:06:31.976Z,10.26
2022-11-08T22:09:59.399Z,10.26
2022-11-08T22:13:25.948Z,10.24
2022-11-08T22:16:53.941Z,10.21
2022-11-08T22:20:20.789Z,10.15
2022-11-08T22:23:48.325Z,10.09
2022-11-08T22:27:15.307Z,10.02
2022-11-08T22:30:43.107Z,9.98
2022-11-08T22:34:12.276Z,9.91
2022-11-08T22:37:39.638Z,9.87
2022-11-08T22:41:09.768Z,9.82
2022-11-08T22:44:36.791Z,9.80
2022-11-08T22:48:03.740Z,9.81
2022-11-08T22:51:34.341Z,9.82
2022-11-08T22:55:01.142Z,9.84
2022-11-08T22:58:28.927Z,9.88
2022-11-08T23:01:57.448Z,9.89
2022-11-08T23:05:25.484Z,9.89
2022-11-08T23:08:53.211Z,9.89
2022-11-08T23:12:40.331Z,9.93
2022-11-08T23:16:28.824Z,9.93
2022-11-08T23:20:15.792Z,9.92
2022-11-08T23:24:05.747Z,9.88
2022-11-08T23:27:51.557Z,9.82
2022-11-08T23:31:38.473Z,9.76
2022-11-08T23:35:12.391Z,9.70
2022-11-08T23:38:41.766Z,9.64
2022-11-08T23:42:26.922Z,9.56
2022-11-08T23:45:55.965Z,9.57
2022-11-08T23:49:23.969Z,9.55
2022-11-08T23:52:53.080Z,9.53
2022-11-08T23:56:25.022Z,9.54
2022-11-08T23:59:52.430Z,9.55
